sensor_id;sensor_type;location;lat;lon;timestamp;P1;durP1;ratioP1;P2;durP2;ratioP2
7665;SDS011;3875;46.562;4.898;2022-12-29T00:02:19;5.07;;;3.37;;
7665;SDS011;3875;46.562;4.898;2022-12-29T00:04:45;5.10;;;3.53;;
7665;SDS011;3875;46.562;4.898;2022-12-29T00:07:11;4.93;;;3.80;;
7665;SDS011;3875;46.562;4.898;2022-12-29T00:09:37;4.67;;;3.63;;
7665;SDS011;3875;46.562;4.898;2022-12-29T00:12:03;4.37;;;3.57;;
7665;SDS011;3875;46.562;4.898;2022-12-29T00:14:29;5.93;;;4.00;;
7665;SDS011;3875;46.562;4.898;2022-12-29T00:17:14;8.77;;;3.50;;
7665;SDS011;3875;46.562;4.898;2022-12-29T00:19:40;6.97;;;3.87;;
7665;SDS011;3875;46.562;4.898;2022-12-29T00:22:24;5.57;;;3.60;;
7665;SDS011;3875;46.562;4.898;2022-12-29T00:25:10;7.97;;;3.70;;
7665;SDS011;3875;46.562;4.898;2022-12-29T00:27:55;7.50;;;4.17;;
7665;SDS011;3875;46.562;4.898;2022-12-29T00:30:40;4.60;;;3.83;;
7665;SDS011;3875;46.562;4.898;2022-12-29T00:33:26;7.23;;;4.63;;
7665;SDS011;3875;46.562;4.898;2022-12-29T00:36:27;6.50;;;4.60;;
7665;SDS011;3875;46.562;4.898;2022-12-29T00:39:05;5.93;;;4.13;;
7665;SDS011;3875;46.562;4.898;2022-12-29T00:41:55;5.80;;;4.33;;
7665;SDS011;3875;46.562;4.898;2022-12-29T00:44:48;8.13;;;4.37;;
7665;SDS011;3875;46.562;4.898;2022-12-29T00:47:17;8.30;;;4.57;;
7665;SDS011;3875;46.562;4.898;2022-12-29T00:49:43;7.10;;;5.10;;
7665;SDS011;3875;46.562;4.898;2022-12-29T00:52:10;8.53;;;5.17;;
7665;SDS011;3875;46.562;4.898;2022-12-29T00:54:37;8.43;;;4.87;;
7665;SDS011;3875;46.562;4.898;2022-12-29T00:57:05;11.63;;;5.20;;
7665;SDS011;3875;46.562;4.898;2022-12-29T00:59:36;6.87;;;5.10;;
7665;SDS011;3875;46.562;4.898;2022-12-29T01:02:03;9.00;;;5.30;;
7665;SDS011;3875;46.562;4.898;2022-12-29T01:04:29;7.27;;;4.80;;
7665;SDS011;3875;46.562;4.898;2022-12-29T01:06:55;9.20;;;5.37;;
7665;SDS011;3875;46.562;4.898;2022-12-29T01:09:21;7.13;;;5.20;;
7665;SDS011;3875;46.562;4.898;2022-12-29T01:12:06;8.77;;;5.77;;
7665;SDS011;3875;46.562;4.898;2022-12-29T01:14:33;9.23;;;6.00;;
7665;SDS011;3875;46.562;4.898;2022-12-29T01:16:59;8.27;;;5.43;;
7665;SDS011;3875;46.562;4.898;2022-12-29T01:19:25;9.43;;;6.17;;
7665;SDS011;3875;46.562;4.898;2022-12-29T01:21:51;6.50;;;5.60;;
7665;SDS011;3875;46.562;4.898;2022-12-29T01:24:20;11.80;;;6.20;;
7665;SDS011;3875;46.562;4.898;2022-12-29T01:26:46;7.57;;;5.97;;
7665;SDS011;3875;46.562;4.898;2022-12-29T01:29:12;8.87;;;5.70;;
7665;SDS011;3875;46.562;4.898;2022-12-29T01:31:38;8.63;;;5.57;;
7665;SDS011;3875;46.562;4.898;2022-12-29T01:34:04;9.73;;;5.63;;
7665;SDS011;3875;46.562;4.898;2022-12-29T01:36:30;11.37;;;5.63;;
7665;SDS011;3875;46.562;4.898;2022-12-29T01:38:57;9.67;;;5.43;;
7665;SDS011;3875;46.562;4.898;2022-12-29T01:41:26;7.87;;;5.50;;
7665;SDS011;3875;46.562;4.898;2022-12-29T01:43:53;7.07;;;5.80;;
7665;SDS011;3875;46.562;4.898;2022-12-29T01:46:40;8.63;;;6.17;;
7665;SDS011;3875;46.562;4.898;2022-12-29T01:49:12;8.33;;;5.90;;
7665;SDS011;3875;46.562;4.898;2022-12-29T01:51:42;9.50;;;5.60;;
7665;SDS011;3875;46.562;4.898;2022-12-29T01:57:12;9.43;;;6.10;;
7665;SDS011;3875;46.562;4.898;2022-12-29T01:59:50;10.90;;;6.47;;
7665;SDS011;3875;46.562;4.898;2022-12-29T02:02:36;8.10;;;6.13;;
7665;SDS011;3875;46.562;4.898;2022-12-29T02:05:09;8.57;;;6.17;;
7665;SDS011;3875;46.562;4.898;2022-12-29T02:07:41;7.83;;;6.27;;
7665;SDS011;3875;46.562;4.898;2022-12-29T02:10:08;7.73;;;6.23;;
7665;SDS011;3875;46.562;4.898;2022-12-29T02:12:34;10.60;;;6.70;;
7665;SDS011;3875;46.562;4.898;2022-12-29T02:15:00;8.47;;;6.53;;
7665;SDS011;3875;46.562;4.898;2022-12-29T02:34:15;7.30;;;5.47;;
7665;SDS011;3875;46.562;4.898;2022-12-29T02:39:44;10.63;;;6.47;;
7665;SDS011;3875;46.562;4.898;2022-12-29T02:45:11;10.20;;;6.30;;
7665;SDS011;3875;46.562;4.898;2022-12-29T02:50:33;13.07;;;6.43;;
7665;SDS011;3875;46.562;4.898;2022-12-29T02:53:17;9.30;;;6.57;;
7665;SDS011;3875;46.562;4.898;2022-12-29T02:56:04;9.90;;;6.30;;
7665;SDS011;3875;46.562;4.898;2022-12-29T02:58:33;11.57;;;6.97;;
7665;SDS011;3875;46.562;4.898;2022-12-29T03:06:48;11.37;;;7.03;;
7665;SDS011;3875;46.562;4.898;2022-12-29T03:09:43;11.33;;;6.50;;
7665;SDS011;3875;46.562;4.898;2022-12-29T03:15:23;8.97;;;6.77;;
7665;SDS011;3875;46.562;4.898;2022-12-29T03:18:36;10.90;;;6.53;;
7665;SDS011;3875;46.562;4.898;2022-12-29T03:23:41;11.63;;;6.53;;
7665;SDS011;3875;46.562;4.898;2022-12-29T03:26:12;12.53;;;7.53;;
7665;SDS011;3875;46.562;4.898;2022-12-29T03:28:44;14.00;;;8.03;;
7665;SDS011;3875;46.562;4.898;2022-12-29T03:31:17;11.60;;;8.10;;
7665;SDS011;3875;46.562;4.898;2022-12-29T03:33:44;10.90;;;7.40;;
7665;SDS011;3875;46.562;4.898;2022-12-29T03:36:16;10.77;;;7.27;;
7665;SDS011;3875;46.562;4.898;2022-12-29T03:38:55;13.10;;;7.87;;
7665;SDS011;3875;46.562;4.898;2022-12-29T03:41:30;13.60;;;7.27;;
7665;SDS011;3875;46.562;4.898;2022-12-29T03:43:58;11.27;;;7.50;;
7665;SDS011;3875;46.562;4.898;2022-12-29T03:46:23;11.73;;;7.90;;
7665;SDS011;3875;46.562;4.898;2022-12-29T03:48:49;10.67;;;7.37;;
7665;SDS011;3875;46.562;4.898;2022-12-29T03:51:15;12.03;;;8.27;;
7665;SDS011;3875;46.562;4.898;2022-12-29T03:53:40;15.40;;;7.53;;
7665;SDS011;3875;46.562;4.898;2022-12-29T03:56:06;12.60;;;7.87;;
7665;SDS011;3875;46.562;4.898;2022-12-29T03:58:32;15.00;;;7.93;;
7665;SDS011;3875;46.562;4.898;2022-12-29T04:00:57;11.13;;;7.80;;
7665;SDS011;3875;46.562;4.898;2022-12-29T04:03:23;13.30;;;7.67;;
7665;SDS011;3875;46.562;4.898;2022-12-29T04:05:49;11.93;;;7.90;;
7665;SDS011;3875;46.562;4.898;2022-12-29T04:08:14;11.17;;;7.27;;
7665;SDS011;3875;46.562;4.898;2022-12-29T04:10:40;15.43;;;7.83;;
7665;SDS011;3875;46.562;4.898;2022-12-29T04:13:06;13.57;;;7.87;;
7665;SDS011;3875;46.562;4.898;2022-12-29T04:15:31;14.40;;;7.83;;
7665;SDS011;3875;46.562;4.898;2022-12-29T04:17:57;10.43;;;7.07;;
7665;SDS011;3875;46.562;4.898;2022-12-29T04:20:23;13.63;;;7.57;;
7665;SDS011;3875;46.562;4.898;2022-12-29T04:23:07;10.70;;;7.90;;
7665;SDS011;3875;46.562;4.898;2022-12-29T04:25:33;12.03;;;8.20;;
7665;SDS011;3875;46.562;4.898;2022-12-29T04:27:59;13.17;;;7.87;;
7665;SDS011;3875;46.562;4.898;2022-12-29T04:30:25;14.07;;;7.93;;
7665;SDS011;3875;46.562;4.898;2022-12-29T04:32:50;14.60;;;7.83;;
7665;SDS011;3875;46.562;4.898;2022-12-29T04:35:16;14.13;;;7.77;;
7665;SDS011;3875;46.562;4.898;2022-12-29T04:37:42;15.57;;;8.23;;
7665;SDS011;3875;46.562;4.898;2022-12-29T04:40:08;12.13;;;7.83;;
7665;SDS011;3875;46.562;4.898;2022-12-29T04:42:34;11.60;;;8.13;;
7665;SDS011;3875;46.562;4.898;2022-12-29T04:44:59;13.97;;;8.57;;
7665;SDS011;3875;46.562;4.898;2022-12-29T04:47:25;11.23;;;8.47;;
7665;SDS011;3875;46.562;4.898;2022-12-29T04:49:51;12.83;;;8.50;;
7665;SDS011;3875;46.562;4.898;2022-12-29T04:52:16;14.57;;;8.97;;
7665;SDS011;3875;46.562;4.898;2022-12-29T04:54:42;15.23;;;8.57;;
7665;SDS011;3875;46.562;4.898;2022-12-29T04:57:08;14.53;;;9.60;;
7665;SDS011;3875;46.562;4.898;2022-12-29T04:59:33;14.90;;;8.30;;
7665;SDS011;3875;46.562;4.898;2022-12-29T05:01:59;11.27;;;8.53;;
7665;SDS011;3875;46.562;4.898;2022-12-29T05:04:25;13.87;;;8.23;;
7665;SDS011;3875;46.562;4.898;2022-12-29T05:06:50;12.53;;;8.73;;
7665;SDS011;3875;46.562;4.898;2022-12-29T05:09:16;16.27;;;8.83;;
7665;SDS011;3875;46.562;4.898;2022-12-29T05:11:42;12.80;;;8.30;;
7665;SDS011;3875;46.562;4.898;2022-12-29T05:14:07;13.93;;;8.27;;
7665;SDS011;3875;46.562;4.898;2022-12-29T05:16:33;12.43;;;8.37;;
7665;SDS011;3875;46.562;4.898;2022-12-29T05:18:59;17.27;;;8.47;;
7665;SDS011;3875;46.562;4.898;2022-12-29T05:21:24;13.70;;;8.93;;
7665;SDS011;3875;46.562;4.898;2022-12-29T05:23:50;16.10;;;8.33;;
7665;SDS011;3875;46.562;4.898;2022-12-29T05:26:16;11.57;;;7.80;;
7665;SDS011;3875;46.562;4.898;2022-12-29T05:28:42;14.03;;;8.40;;
7665;SDS011;3875;46.562;4.898;2022-12-29T05:31:07;16.13;;;8.67;;
7665;SDS011;3875;46.562;4.898;2022-12-29T05:33:33;13.33;;;7.67;;
7665;SDS011;3875;46.562;4.898;2022-12-29T05:36:08;12.07;;;8.43;;
7665;SDS011;3875;46.562;4.898;2022-12-29T05:38:35;12.50;;;6.87;;
7665;SDS011;3875;46.562;4.898;2022-12-29T05:41:00;9.67;;;7.17;;
7665;SDS011;3875;46.562;4.898;2022-12-29T05:43:26;13.47;;;8.33;;
7665;SDS011;3875;46.562;4.898;2022-12-29T05:45:52;11.27;;;7.50;;
7665;SDS011;3875;46.562;4.898;2022-12-29T05:48:18;10.83;;;7.23;;
7665;SDS011;3875;46.562;4.898;2022-12-29T05:50:48;11.47;;;7.90;;
7665;SDS011;3875;46.562;4.898;2022-12-29T05:53:14;12.53;;;8.17;;
7665;SDS011;3875;46.562;4.898;2022-12-29T05:55:40;14.83;;;8.17;;
7665;SDS011;3875;46.562;4.898;2022-12-29T05:58:05;10.70;;;6.90;;
7665;SDS011;3875;46.562;4.898;2022-12-29T06:00:31;12.17;;;7.87;;
7665;SDS011;3875;46.562;4.898;2022-12-29T06:02:57;10.03;;;7.23;;
7665;SDS011;3875;46.562;4.898;2022-12-29T06:05:22;10.47;;;7.57;;
7665;SDS011;3875;46.562;4.898;2022-12-29T06:07:48;12.33;;;7.27;;
7665;SDS011;3875;46.562;4.898;2022-12-29T06:10:14;12.43;;;8.00;;
7665;SDS011;3875;46.562;4.898;2022-12-29T06:12:39;9.70;;;7.50;;
7665;SDS011;3875;46.562;4.898;2022-12-29T06:15:05;11.87;;;6.77;;
7665;SDS011;3875;46.562;4.898;2022-12-29T06:17:31;9.07;;;7.40;;
7665;SDS011;3875;46.562;4.898;2022-12-29T06:19:57;10.90;;;7.10;;
7665;SDS011;3875;46.562;4.898;2022-12-29T06:22:23;12.17;;;7.03;;
7665;SDS011;3875;46.562;4.898;2022-12-29T06:24:49;13.20;;;7.30;;
7665;SDS011;3875;46.562;4.898;2022-12-29T06:27:14;11.37;;;7.07;;
7665;SDS011;3875;46.562;4.898;2022-12-29T06:29:40;11.47;;;7.17;;
7665;SDS011;3875;46.562;4.898;2022-12-29T06:32:07;9.63;;;6.83;;
7665;SDS011;3875;46.562;4.898;2022-12-29T06:34:33;17.10;;;9.07;;
7665;SDS011;3875;46.562;4.898;2022-12-29T06:36:59;12.40;;;7.40;;
7665;SDS011;3875;46.562;4.898;2022-12-29T06:39:26;14.97;;;7.10;;
7665;SDS011;3875;46.562;4.898;2022-12-29T06:41:53;10.83;;;7.23;;
7665;SDS011;3875;46.562;4.898;2022-12-29T06:44:19;12.80;;;7.23;;
7665;SDS011;3875;46.562;4.898;2022-12-29T06:46:45;14.00;;;7.17;;
7665;SDS011;3875;46.562;4.898;2022-12-29T06:49:11;8.97;;;6.63;;
7665;SDS011;3875;46.562;4.898;2022-12-29T06:51:37;9.53;;;6.97;;
7665;SDS011;3875;46.562;4.898;2022-12-29T06:54:02;15.03;;;7.17;;
7665;SDS011;3875;46.562;4.898;2022-12-29T06:56:28;10.03;;;7.17;;
7665;SDS011;3875;46.562;4.898;2022-12-29T06:58:54;10.67;;;6.90;;
7665;SDS011;3875;46.562;4.898;2022-12-29T07:01:19;11.03;;;6.83;;
7665;SDS011;3875;46.562;4.898;2022-12-29T07:03:45;12.57;;;7.23;;
7665;SDS011;3875;46.562;4.898;2022-12-29T07:06:11;15.70;;;7.13;;
7665;SDS011;3875;46.562;4.898;2022-12-29T07:08:36;13.10;;;7.30;;
7665;SDS011;3875;46.562;4.898;2022-12-29T07:11:03;11.37;;;7.37;;
7665;SDS011;3875;46.562;4.898;2022-12-29T07:13:29;10.23;;;7.47;;
7665;SDS011;3875;46.562;4.898;2022-12-29T07:15:55;13.10;;;7.17;;
7665;SDS011;3875;46.562;4.898;2022-12-29T07:18:20;10.20;;;7.07;;
7665;SDS011;3875;46.562;4.898;2022-12-29T07:20:46;13.67;;;7.10;;
7665;SDS011;3875;46.562;4.898;2022-12-29T07:23:12;11.90;;;6.60;;
7665;SDS011;3875;46.562;4.898;2022-12-29T07:25:38;13.73;;;6.80;;
7665;SDS011;3875;46.562;4.898;2022-12-29T07:28:05;10.37;;;7.73;;
7665;SDS011;3875;46.562;4.898;2022-12-29T07:30:31;11.90;;;6.63;;
7665;SDS011;3875;46.562;4.898;2022-12-29T07:32:57;13.37;;;7.70;;
7665;SDS011;3875;46.562;4.898;2022-12-29T07:35:22;14.30;;;7.13;;
7665;SDS011;3875;46.562;4.898;2022-12-29T07:37:48;9.83;;;7.17;;
7665;SDS011;3875;46.562;4.898;2022-12-29T07:40:14;9.97;;;6.60;;
7665;SDS011;3875;46.562;4.898;2022-12-29T07:42:40;13.53;;;7.30;;
7665;SDS011;3875;46.562;4.898;2022-12-29T07:45:05;12.87;;;6.63;;
7665;SDS011;3875;46.562;4.898;2022-12-29T07:47:31;9.33;;;6.70;;
7665;SDS011;3875;46.562;4.898;2022-12-29T07:49:57;13.03;;;6.87;;
7665;SDS011;3875;46.562;4.898;2022-12-29T07:52:23;10.63;;;6.70;;
7665;SDS011;3875;46.562;4.898;2022-12-29T07:54:48;12.33;;;7.57;;
7665;SDS011;3875;46.562;4.898;2022-12-29T07:57:14;14.30;;;7.23;;
7665;SDS011;3875;46.562;4.898;2022-12-29T07:59:40;10.50;;;6.83;;
7665;SDS011;3875;46.562;4.898;2022-12-29T08:02:05;10.37;;;7.27;;
7665;SDS011;3875;46.562;4.898;2022-12-29T08:04:31;11.77;;;6.60;;
7665;SDS011;3875;46.562;4.898;2022-12-29T08:06:57;9.63;;;7.10;;
7665;SDS011;3875;46.562;4.898;2022-12-29T08:09:22;14.60;;;7.43;;
7665;SDS011;3875;46.562;4.898;2022-12-29T08:11:48;11.63;;;6.83;;
7665;SDS011;3875;46.562;4.898;2022-12-29T08:14:14;13.03;;;7.33;;
7665;SDS011;3875;46.562;4.898;2022-12-29T08:16:39;11.20;;;6.53;;
7665;SDS011;3875;46.562;4.898;2022-12-29T08:19:05;9.70;;;7.03;;
7665;SDS011;3875;46.562;4.898;2022-12-29T08:21:31;10.93;;;6.97;;
7665;SDS011;3875;46.562;4.898;2022-12-29T08:23:57;9.63;;;6.70;;
7665;SDS011;3875;46.562;4.898;2022-12-29T08:26:24;11.77;;;6.87;;
7665;SDS011;3875;46.562;4.898;2022-12-29T08:28:52;17.37;;;7.17;;
7665;SDS011;3875;46.562;4.898;2022-12-29T08:31:18;9.73;;;6.33;;
7665;SDS011;3875;46.562;4.898;2022-12-29T08:33:44;11.97;;;6.80;;
7665;SDS011;3875;46.562;4.898;2022-12-29T08:36:09;10.77;;;7.10;;
7665;SDS011;3875;46.562;4.898;2022-12-29T08:38:35;12.80;;;6.53;;
7665;SDS011;3875;46.562;4.898;2022-12-29T08:41:01;13.97;;;6.27;;
7665;SDS011;3875;46.562;4.898;2022-12-29T08:43:27;8.83;;;6.27;;
7665;SDS011;3875;46.562;4.898;2022-12-29T08:45:53;14.37;;;7.03;;
7665;SDS011;3875;46.562;4.898;2022-12-29T08:48:19;9.97;;;6.17;;
7665;SDS011;3875;46.562;4.898;2022-12-29T08:50:47;12.20;;;6.40;;
7665;SDS011;3875;46.562;4.898;2022-12-29T08:53:14;11.23;;;6.03;;
7665;SDS011;3875;46.562;4.898;2022-12-29T08:55:40;10.87;;;6.47;;
7665;SDS011;3875;46.562;4.898;2022-12-29T08:58:05;7.60;;;6.17;;
7665;SDS011;3875;46.562;4.898;2022-12-29T09:00:31;8.93;;;6.13;;
7665;SDS011;3875;46.562;4.898;2022-12-29T09:02:57;11.03;;;6.10;;
7665;SDS011;3875;46.562;4.898;2022-12-29T09:05:23;10.10;;;6.67;;
7665;SDS011;3875;46.562;4.898;2022-12-29T09:07:48;16.87;;;5.77;;
7665;SDS011;3875;46.562;4.898;2022-12-29T09:10:14;9.10;;;5.63;;
7665;SDS011;3875;46.562;4.898;2022-12-29T09:12:40;10.93;;;6.63;;
7665;SDS011;3875;46.562;4.898;2022-12-29T09:15:05;13.10;;;5.90;;
7665;SDS011;3875;46.562;4.898;2022-12-29T09:17:32;7.90;;;5.53;;
7665;SDS011;3875;46.562;4.898;2022-12-29T09:20:11;11.07;;;5.90;;
7665;SDS011;3875;46.562;4.898;2022-12-29T09:22:38;11.00;;;6.13;;
7665;SDS011;3875;46.562;4.898;2022-12-29T09:25:04;13.37;;;6.07;;
7665;SDS011;3875;46.562;4.898;2022-12-29T09:27:30;11.03;;;5.53;;
7665;SDS011;3875;46.562;4.898;2022-12-29T09:29:56;10.90;;;5.73;;
7665;SDS011;3875;46.562;4.898;2022-12-29T09:32:22;12.47;;;5.67;;
7665;SDS011;3875;46.562;4.898;2022-12-29T09:34:48;11.30;;;6.07;;
7665;SDS011;3875;46.562;4.898;2022-12-29T09:37:14;12.87;;;6.10;;
7665;SDS011;3875;46.562;4.898;2022-12-29T09:39:39;12.83;;;6.50;;
7665;SDS011;3875;46.562;4.898;2022-12-29T09:42:13;8.97;;;5.77;;
7665;SDS011;3875;46.562;4.898;2022-12-29T09:48:11;11.70;;;6.07;;
7665;SDS011;3875;46.562;4.898;2022-12-29T09:50:44;10.67;;;5.83;;
7665;SDS011;3875;46.562;4.898;2022-12-29T09:53:21;8.70;;;5.57;;
7665;SDS011;3875;46.562;4.898;2022-12-29T09:55:57;11.83;;;5.80;;
7665;SDS011;3875;46.562;4.898;2022-12-29T09:58:39;6.43;;;5.03;;
7665;SDS011;3875;46.562;4.898;2022-12-29T10:03:52;9.70;;;5.43;;
7665;SDS011;3875;46.562;4.898;2022-12-29T10:06:23;11.63;;;6.10;;
7665;SDS011;3875;46.562;4.898;2022-12-29T10:14:33;8.53;;;5.47;;
7665;SDS011;3875;46.562;4.898;2022-12-29T10:20:52;11.00;;;6.00;;
7665;SDS011;3875;46.562;4.898;2022-12-29T10:25:55;9.20;;;5.20;;
7665;SDS011;3875;46.562;4.898;2022-12-29T10:28:23;11.80;;;6.67;;
7665;SDS011;3875;46.562;4.898;2022-12-29T10:30:57;9.33;;;5.57;;
7665;SDS011;3875;46.562;4.898;2022-12-29T10:33:31;9.47;;;6.03;;
7665;SDS011;3875;46.562;4.898;2022-12-29T10:36:44;9.60;;;5.63;;
7665;SDS011;3875;46.562;4.898;2022-12-29T10:39:21;12.97;;;6.30;;
7665;SDS011;3875;46.562;4.898;2022-12-29T10:41:57;10.77;;;5.80;;
7665;SDS011;3875;46.562;4.898;2022-12-29T10:44:36;7.30;;;5.57;;
7665;SDS011;3875;46.562;4.898;2022-12-29T10:47:03;9.30;;;6.13;;
7665;SDS011;3875;46.562;4.898;2022-12-29T10:49:32;8.60;;;5.43;;
7665;SDS011;3875;46.562;4.898;2022-12-29T10:52:02;7.57;;;5.53;;
7665;SDS011;3875;46.562;4.898;2022-12-29T10:59:49;11.10;;;5.73;;
7665;SDS011;3875;46.562;4.898;2022-12-29T11:05:33;9.07;;;5.70;;
7665;SDS011;3875;46.562;4.898;2022-12-29T11:08:08;6.57;;;5.20;;
7665;SDS011;3875;46.562;4.898;2022-12-29T11:10:38;11.30;;;6.20;;
7665;SDS011;3875;46.562;4.898;2022-12-29T11:15:41;9.67;;;6.03;;
7665;SDS011;3875;46.562;4.898;2022-12-29T11:18:17;9.73;;;4.63;;
7665;SDS011;3875;46.562;4.898;2022-12-29T11:20:58;8.13;;;5.20;;
7665;SDS011;3875;46.562;4.898;2022-12-29T11:26:06;8.77;;;4.97;;
7665;SDS011;3875;46.562;4.898;2022-12-29T11:28:35;8.93;;;5.20;;
7665;SDS011;3875;46.562;4.898;2022-12-29T11:31:05;7.57;;;5.50;;
7665;SDS011;3875;46.562;4.898;2022-12-29T11:33:33;6.93;;;5.27;;
7665;SDS011;3875;46.562;4.898;2022-12-29T11:36:14;5.73;;;4.67;;
7665;SDS011;3875;46.562;4.898;2022-12-29T11:38:46;6.43;;;4.80;;
7665;SDS011;3875;46.562;4.898;2022-12-29T11:41:18;9.10;;;5.80;;
7665;SDS011;3875;46.562;4.898;2022-12-29T11:43:50;9.23;;;5.20;;
7665;SDS011;3875;46.562;4.898;2022-12-29T11:46:18;7.10;;;4.60;;
7665;SDS011;3875;46.562;4.898;2022-12-29T11:48:47;9.03;;;5.70;;
7665;SDS011;3875;46.562;4.898;2022-12-29T11:51:20;13.67;;;5.43;;
7665;SDS011;3875;46.562;4.898;2022-12-29T11:53:53;7.23;;;5.20;;
7665;SDS011;3875;46.562;4.898;2022-12-29T11:56:41;6.80;;;4.80;;
7665;SDS011;3875;46.562;4.898;2022-12-29T12:01:52;7.07;;;5.10;;
7665;SDS011;3875;46.562;4.898;2022-12-29T12:04:19;6.33;;;4.50;;
7665;SDS011;3875;46.562;4.898;2022-12-29T12:07:00;7.93;;;5.23;;
7665;SDS011;3875;46.562;4.898;2022-12-29T12:09:37;9.23;;;4.93;;
7665;SDS011;3875;46.562;4.898;2022-12-29T12:12:24;7.70;;;5.00;;
7665;SDS011;3875;46.562;4.898;2022-12-29T12:14:56;6.87;;;5.47;;
7665;SDS011;3875;46.562;4.898;2022-12-29T12:17:35;6.70;;;4.73;;
7665;SDS011;3875;46.562;4.898;2022-12-29T12:23:12;10.17;;;5.40;;
7665;SDS011;3875;46.562;4.898;2022-12-29T12:25:50;11.07;;;4.90;;
7665;SDS011;3875;46.562;4.898;2022-12-29T12:28:21;11.23;;;5.10;;
7665;SDS011;3875;46.562;4.898;2022-12-29T12:30:56;8.33;;;5.07;;
7665;SDS011;3875;46.562;4.898;2022-12-29T12:38:49;10.20;;;5.13;;
7665;SDS011;3875;46.562;4.898;2022-12-29T12:47:27;6.37;;;4.63;;
7665;SDS011;3875;46.562;4.898;2022-12-29T12:52:52;10.33;;;4.63;;
7665;SDS011;3875;46.562;4.898;2022-12-29T12:55:30;9.10;;;4.90;;
7665;SDS011;3875;46.562;4.898;2022-12-29T12:58:12;9.33;;;4.83;;
7665;SDS011;3875;46.562;4.898;2022-12-29T13:03:43;10.07;;;4.40;;
7665;SDS011;3875;46.562;4.898;2022-12-29T13:09:52;8.00;;;4.30;;
7665;SDS011;3875;46.562;4.898;2022-12-29T13:12:45;8.47;;;5.10;;
7665;SDS011;3875;46.562;4.898;2022-12-29T13:15:48;4.03;;;3.67;;
7665;SDS011;3875;46.562;4.898;2022-12-29T13:26:50;6.37;;;4.33;;
7665;SDS011;3875;46.562;4.898;2022-12-29T13:34:28;7.50;;;3.67;;
7665;SDS011;3875;46.562;4.898;2022-12-29T13:37:12;9.07;;;4.50;;
7665;SDS011;3875;46.562;4.898;2022-12-29T13:39:51;11.60;;;4.53;;
7665;SDS011;3875;46.562;4.898;2022-12-29T13:42:20;7.43;;;4.00;;
7665;SDS011;3875;46.562;4.898;2022-12-29T13:44:48;14.17;;;4.43;;
7665;SDS011;3875;46.562;4.898;2022-12-29T13:47:51;12.43;;;4.87;;
7665;SDS011;3875;46.562;4.898;2022-12-29T13:50:52;14.13;;;5.20;;
7665;SDS011;3875;46.562;4.898;2022-12-29T13:59:27;16.20;;;5.17;;
7665;SDS011;3875;46.562;4.898;2022-12-29T14:07:43;17.67;;;6.70;;
7665;SDS011;3875;46.562;4.898;2022-12-29T14:10:45;15.27;;;6.87;;
7665;SDS011;3875;46.562;4.898;2022-12-29T14:13:13;19.83;;;10.57;;
7665;SDS011;3875;46.562;4.898;2022-12-29T14:15:42;11.63;;;6.40;;
7665;SDS011;3875;46.562;4.898;2022-12-29T14:18:16;13.30;;;5.37;;
7665;SDS011;3875;46.562;4.898;2022-12-29T14:21:09;12.10;;;4.63;;
7665;SDS011;3875;46.562;4.898;2022-12-29T14:23:40;15.60;;;7.00;;
7665;SDS011;3875;46.562;4.898;2022-12-29T14:28:53;14.03;;;5.27;;
7665;SDS011;3875;46.562;4.898;2022-12-29T14:36:34;15.33;;;5.87;;
7665;SDS011;3875;46.562;4.898;2022-12-29T14:39:18;9.93;;;5.10;;
7665;SDS011;3875;46.562;4.898;2022-12-29T14:42:26;12.67;;;5.67;;
7665;SDS011;3875;46.562;4.898;2022-12-29T14:50:33;12.10;;;4.30;;
7665;SDS011;3875;46.562;4.898;2022-12-29T14:52:54;10.83;;;5.13;;
7665;SDS011;3875;46.562;4.898;2022-12-29T14:58:04;10.63;;;5.27;;
7665;SDS011;3875;46.562;4.898;2022-12-29T15:00:34;14.87;;;4.90;;
7665;SDS011;3875;46.562;4.898;2022-12-29T15:08:44;15.80;;;6.30;;
7665;SDS011;3875;46.562;4.898;2022-12-29T15:13:53;11.07;;;5.30;;
7665;SDS011;3875;46.562;4.898;2022-12-29T15:16:26;11.30;;;5.70;;
7665;SDS011;3875;46.562;4.898;2022-12-29T15:18:59;7.93;;;5.17;;
7665;SDS011;3875;46.562;4.898;2022-12-29T15:23:53;8.70;;;5.03;;
7665;SDS011;3875;46.562;4.898;2022-12-29T15:26:19;10.27;;;5.40;;
7665;SDS011;3875;46.562;4.898;2022-12-29T15:28:48;9.77;;;5.30;;
7665;SDS011;3875;46.562;4.898;2022-12-29T15:31:22;11.93;;;5.50;;
7665;SDS011;3875;46.562;4.898;2022-12-29T15:33:50;12.33;;;5.73;;
7665;SDS011;3875;46.562;4.898;2022-12-29T15:36:20;9.93;;;4.90;;
7665;SDS011;3875;46.562;4.898;2022-12-29T15:38:51;12.73;;;6.50;;
7665;SDS011;3875;46.562;4.898;2022-12-29T15:46:37;12.03;;;4.47;;
7665;SDS011;3875;46.562;4.898;2022-12-29T15:49:09;5.00;;;3.70;;
7665;SDS011;3875;46.562;4.898;2022-12-29T15:51:38;7.67;;;3.90;;
7665;SDS011;3875;46.562;4.898;2022-12-29T15:54:05;5.90;;;3.50;;
7665;SDS011;3875;46.562;4.898;2022-12-29T15:56:39;5.07;;;3.60;;
7665;SDS011;3875;46.562;4.898;2022-12-29T15:59:21;9.57;;;3.80;;
7665;SDS011;3875;46.562;4.898;2022-12-29T16:01:58;4.53;;;3.27;;
7665;SDS011;3875;46.562;4.898;2022-12-29T16:04:27;6.10;;;3.30;;
7665;SDS011;3875;46.562;4.898;2022-12-29T16:07:00;6.47;;;3.80;;
7665;SDS011;3875;46.562;4.898;2022-12-29T16:09:34;7.43;;;4.00;;
7665;SDS011;3875;46.562;4.898;2022-12-29T16:12:07;4.33;;;2.70;;
7665;SDS011;3875;46.562;4.898;2022-12-29T16:14:44;3.43;;;2.87;;
7665;SDS011;3875;46.562;4.898;2022-12-29T16:17:12;4.80;;;2.27;;
7665;SDS011;3875;46.562;4.898;2022-12-29T16:19:41;5.03;;;2.63;;
7665;SDS011;3875;46.562;4.898;2022-12-29T16:22:14;2.20;;;1.80;;
7665;SDS011;3875;46.562;4.898;2022-12-29T16:24:45;1.97;;;1.77;;
7665;SDS011;3875;46.562;4.898;2022-12-29T16:29:49;1.50;;;1.40;;
7665;SDS011;3875;46.562;4.898;2022-12-29T16:35:39;3.43;;;1.83;;
7665;SDS011;3875;46.562;4.898;2022-12-29T16:37:43;3.50;;;1.90;;
7665;SDS011;3875;46.562;4.898;2022-12-29T16:42:54;5.10;;;1.80;;
7665;SDS011;3875;46.562;4.898;2022-12-29T16:48:16;2.07;;;1.33;;
7665;SDS011;3875;46.562;4.898;2022-12-29T16:50:47;1.87;;;1.20;;
7665;SDS011;3875;46.562;4.898;2022-12-29T16:55:53;1.77;;;1.27;;
7665;SDS011;3875;46.562;4.898;2022-12-29T16:58:24;1.30;;;1.17;;
7665;SDS011;3875;46.562;4.898;2022-12-29T17:00:54;3.10;;;0.93;;
7665;SDS011;3875;46.562;4.898;2022-12-29T17:03:21;1.40;;;1.30;;
7665;SDS011;3875;46.562;4.898;2022-12-29T17:05:48;1.20;;;1.03;;
7665;SDS011;3875;46.562;4.898;2022-12-29T17:08:17;2.07;;;1.30;;
7665;SDS011;3875;46.562;4.898;2022-12-29T17:10:51;1.53;;;1.27;;
7665;SDS011;3875;46.562;4.898;2022-12-29T17:13:38;2.07;;;1.43;;
7665;SDS011;3875;46.562;4.898;2022-12-29T17:16:04;1.77;;;1.13;;
7665;SDS011;3875;46.562;4.898;2022-12-29T17:18:33;2.77;;;1.70;;
7665;SDS011;3875;46.562;4.898;2022-12-29T17:20:59;3.60;;;1.80;;
7665;SDS011;3875;46.562;4.898;2022-12-29T17:23:25;1.50;;;1.20;;
7665;SDS011;3875;46.562;4.898;2022-12-29T17:25:52;1.53;;;1.20;;
7665;SDS011;3875;46.562;4.898;2022-12-29T17:30:49;2.63;;;1.33;;
7665;SDS011;3875;46.562;4.898;2022-12-29T17:33:18;1.70;;;1.10;;
7665;SDS011;3875;46.562;4.898;2022-12-29T17:35:45;1.10;;;0.93;;
7665;SDS011;3875;46.562;4.898;2022-12-29T17:40:39;1.20;;;1.10;;
7665;SDS011;3875;46.562;4.898;2022-12-29T17:43:07;1.30;;;1.20;;
7665;SDS011;3875;46.562;4.898;2022-12-29T17:45:36;1.70;;;1.40;;
7665;SDS011;3875;46.562;4.898;2022-12-29T17:48:07;1.83;;;1.73;;
7665;SDS011;3875;46.562;4.898;2022-12-29T17:50:36;2.50;;;1.70;;
7665;SDS011;3875;46.562;4.898;2022-12-29T17:53:03;3.17;;;1.70;;
7665;SDS011;3875;46.562;4.898;2022-12-29T17:55:30;2.30;;;1.50;;
7665;SDS011;3875;46.562;4.898;2022-12-29T17:57:56;2.13;;;1.60;;
7665;SDS011;3875;46.562;4.898;2022-12-29T18:00:23;2.97;;;1.93;;
7665;SDS011;3875;46.562;4.898;2022-12-29T18:02:54;1.33;;;1.20;;
7665;SDS011;3875;46.562;4.898;2022-12-29T18:05:23;1.73;;;1.50;;
7665;SDS011;3875;46.562;4.898;2022-12-29T18:07:52;1.50;;;1.33;;
7665;SDS011;3875;46.562;4.898;2022-12-29T18:10:20;1.53;;;1.10;;
7665;SDS011;3875;46.562;4.898;2022-12-29T18:12:47;1.57;;;1.37;;
7665;SDS011;3875;46.562;4.898;2022-12-29T18:15:28;1.20;;;1.10;;
7665;SDS011;3875;46.562;4.898;2022-12-29T18:20:41;1.60;;;1.50;;
7665;SDS011;3875;46.562;4.898;2022-12-29T18:23:18;2.00;;;1.57;;
7665;SDS011;3875;46.562;4.898;2022-12-29T18:28:17;2.90;;;1.50;;